Time;durP1;ratioP1;P1;durP2;ratioP2;P2;SDS_P1;SDS_P2;PMS_P1;PMS_P2;Temp;Humidity;BMP_temperature;BMP_pressure;BME280_temperature;BME280_humidity;BME280_pressure;Samples;Min_cycle;Max_cycle;Signal;HPM_P1;HPM_P2
2022/04/04 00:02:19;;;;;;;3.22;2.92;;;;;;;2.77;74.44;62281.66;5045351;28;20217;-72
2022/04/04 00:04:45;;;;;;;2.50;2.35;;;;;;;2.90;70.56;62297.53;5047145;28;20198;-73
2022/04/04 00:07:12;;;;;;;2.13;2.03;;;;;;;2.91;70.51;62296.03;5047802;28;20241;-73
2022/04/04 00:09:39;;;;;;;2.67;2.47;;;;;;;2.86;72.20;62298.97;5046189;28;20205;-73
2022/04/04 00:12:07;;;;;;;2.67;2.55;;;;;;;2.92;73.17;62302.63;5047988;28;20559;-74
2022/04/04 00:14:33;;;;;;;2.70;2.50;;;;;;;2.96;73.52;62309.25;5042374;28;20292;-74
2022/04/04 00:17:00;;;;;;;2.53;2.33;;;;;;;2.79;72.32;62286.75;5047477;28;20577;-73
2022/04/04 00:19:29;;;;;;;2.65;2.45;;;;;;;2.81;74.24;62288.28;5040903;28;20371;-74
2022/04/04 00:21:56;;;;;;;2.70;2.50;;;;;;;2.64;74.30;62278.38;5036720;28;20281;-74
2022/04/04 00:24:24;;;;;;;3.55;2.42;;;;;;;2.80;74.40;62285.25;5044962;28;20209;-73
2022/04/04 00:26:51;;;;;;;3.03;2.83;;;;;;;2.76;75.34;62281.13;5047770;28;20229;-73
2022/04/04 00:29:18;;;;;;;3.05;2.85;;;;;;;2.82;75.68;62289.81;5045286;28;20194;-74
2022/04/04 00:31:45;;;;;;;2.90;2.58;;;;;;;2.83;75.32;62298.38;5048929;28;20293;-74
2022/04/04 00:34:12;;;;;;;2.95;2.63;;;;;;;2.50;77.54;62256.44;5048116;28;20206;-74
2022/04/04 00:36:43;;;;;;;3.22;3.03;;;;;;;2.57;77.35;62268.66;5043552;28;20198;-74
2022/04/04 00:39:10;;;;;;;3.35;2.38;;;;;;;2.58;78.13;62269.69;5045619;28;20194;-74
2022/04/04 00:41:36;;;;;;;3.45;2.63;;;;;;;2.67;76.43;62276.94;5046445;28;20259;-74
2022/04/04 00:44:03;;;;;;;3.42;3.20;;;;;;;2.58;77.13;62262.66;5045855;28;20502;-75
2022/04/04 00:46:30;;;;;;;4.40;2.80;;;;;;;2.66;76.39;62273.38;5044400;28;20202;-73
2022/04/04 00:48:57;;;;;;;2.90;2.50;;;;;;;2.61;76.09;62270.75;5048101;28;20236;-73
2022/04/04 00:51:24;;;;;;;2.83;2.58;;;;;;;2.72;76.33;62274.00;5045881;28;20229;-73
2022/04/04 00:53:52;;;;;;;2.90;2.70;;;;;;;2.72;76.62;62279.03;5048305;28;20300;-73
2022/04/04 00:56:21;;;;;;;2.50;2.30;;;;;;;2.71;76.13;62280.53;5041635;28;20222;-73
2022/04/04 00:58:49;;;;;;;3.35;2.80;;;;;;;2.77;76.08;62284.69;5044683;28;20225;-73
2022/04/04 01:01:16;;;;;;;3.13;2.83;;;;;;;2.65;75.91;62269.84;5047746;28;20221;-72
2022/04/04 01:03:42;;;;;;;2.90;2.70;;;;;;;2.67;76.45;62281.97;5046238;28;20257;-72
2022/04/04 01:06:09;;;;;;;3.45;3.15;;;;;;;2.59;76.75;62265.69;5037671;28;20277;-72
2022/04/04 01:08:38;;;;;;;3.25;2.95;;;;;;;2.62;77.84;62264.25;5044115;28;20221;-73
2022/04/04 01:11:06;;;;;;;3.00;2.80;;;;;;;2.30;79.55;62236.41;5034191;28;20233;-73
2022/04/04 01:13:33;;;;;;;2.78;2.45;;;;;;;2.26;79.89;62232.31;5043425;28;20249;-73
2022/04/04 01:16:00;;;;;;;2.67;2.47;;;;;;;2.40;78.92;62248.69;5045996;28;20202;-73
2022/04/04 01:18:27;;;;;;;2.53;2.33;;;;;;;2.24;78.45;62228.25;5041344;28;20233;-74
2022/04/04 01:20:53;;;;;;;2.92;2.60;;;;;;;2.36;78.82;62240.06;5045066;28;20244;-73
2022/04/04 01:23:24;;;;;;;2.67;2.47;;;;;;;2.38;78.96;62247.16;5043101;28;20256;-72
2022/04/04 01:25:52;;;;;;;3.00;2.80;;;;;;;2.07;80.36;62218.31;5043660;28;20205;-72
2022/04/04 01:28:19;;;;;;;2.00;1.85;;;;;;;1.93;81.50;62205.94;5043988;28;20229;-73
2022/04/04 01:30:49;;;;;;;2.45;2.33;;;;;;;1.84;82.06;62191.69;5042298;28;20252;-73
2022/04/04 01:33:16;;;;;;;3.20;2.85;;;;;;;1.93;83.39;62200.94;5043604;28;20240;-73
2022/04/04 01:35:43;;;;;;;3.83;3.53;;;;;;;2.08;84.26;62211.81;5032057;28;20256;-72
2022/04/04 01:38:10;;;;;;;3.38;3.13;;;;;;;2.02;83.82;62210.19;5043024;28;20222;-73
2022/04/04 01:40:37;;;;;;;2.72;2.63;;;;;;;1.86;84.74;62191.22;5035722;28;20206;-73
2022/04/04 01:43:05;;;;;;;5.88;3.83;;;;;;;1.94;84.73;62199.44;5047229;28;20234;-72
2022/04/04 01:48:16;;;;;;;3.95;3.40;;;;;;;1.92;85.88;62199.88;5033294;28;20343;-72
2022/04/04 01:50:43;;;;;;;3.13;2.92;;;;;;;1.86;87.08;62196.25;5041907;28;20217;-74
2022/04/04 01:53:29;;;;;;;3.65;3.35;;;;;;;1.92;87.53;62202.41;5044128;28;20233;-72
2022/04/04 01:55:58;;;;;;;3.00;2.80;;;;;;;1.94;87.74;62201.94;5044285;28;20198;-74
2022/04/04 01:58:27;;;;;;;3.55;3.25;;;;;;;1.95;88.02;62203.47;5043062;28;20410;-72
2022/04/04 02:00:56;;;;;;;3.50;3.22;;;;;;;1.98;87.86;62203.56;5031657;28;20216;-72
2022/04/04 02:03:24;;;;;;;3.25;3.00;;;;;;;2.04;87.63;62207.19;5043030;28;20226;-73
2022/04/04 02:05:51;;;;;;;3.33;3.13;;;;;;;2.09;86.91;62214.84;5044735;28;20255;-72
2022/04/04 02:08:17;;;;;;;3.85;3.45;;;;;;;2.05;86.43;62211.25;5041331;28;20226;-73
2022/04/04 02:10:45;;;;;;;3.55;3.25;;;;;;;2.08;86.67;62216.84;5043919;28;20218;-73
2022/04/04 02:13:12;;;;;;;3.15;2.95;;;;;;;2.17;87.07;62223.06;5034674;28;20241;-71
2022/04/04 02:15:40;;;;;;;3.30;3.00;;;;;;;2.17;87.63;62223.06;5043234;28;20220;-72
2022/04/04 02:18:07;;;;;;;4.22;3.78;;;;;;;2.16;87.23;62222.03;5033224;28;20249;-73
2022/04/04 02:20:34;;;;;;;4.47;3.30;;;;;;;2.30;87.47;62236.41;5043046;28;20252;-72
2022/04/04 02:23:01;;;;;;;4.00;3.25;;;;;;;2.27;88.03;62236.34;5042754;28;20260;-72
2022/04/04 02:25:28;;;;;;;3.20;3.00;;;;;;;2.27;88.32;62228.31;5041854;28;20215;-73
2022/04/04 02:27:55;;;;;;;3.90;3.47;;;;;;;2.32;88.08;62243.47;5043498;28;20281;-73
2022/04/04 02:30:22;;;;;;;4.85;3.55;;;;;;;2.29;88.10;62235.91;5042755;28;20202;-72
2022/04/04 02:32:50;;;;;;;4.00;3.60;;;;;;;2.34;86.77;62240.53;5042812;28;20534;-72
2022/04/04 02:35:17;;;;;;;5.32;3.80;;;;;;;2.34;85.88;62238.00;5042111;28;20240;-73
2022/04/04 02:37:44;;;;;;;3.70;3.40;;;;;;;2.30;86.24;62236.41;5042080;28;20436;-73
2022/04/04 02:40:12;;;;;;;3.45;3.15;;;;;;;2.34;85.58;62243.53;5028247;28;20274;-72
2022/04/04 02:42:39;;;;;;;3.72;3.42;;;;;;;2.20;84.11;62223.63;5042129;28;20413;-72
2022/04/04 02:45:06;;;;;;;3.40;3.20;;;;;;;2.13;85.06;62216.44;5039979;28;20205;-73
2022/04/04 02:47:33;;;;;;;3.78;3.47;;;;;;;2.07;85.92;62210.28;5042210;28;20423;-72
2022/04/04 02:50:01;;;;;;;5.03;4.10;;;;;;;2.21;85.70;62227.69;5041960;28;20206;-72
2022/04/04 02:52:28;;;;;;;4.43;3.90;;;;;;;2.13;85.24;62214.44;5040143;28;20237;-73
2022/04/04 02:54:55;;;;;;;5.63;4.70;;;;;;;2.22;85.77;62228.19;5042771;28;20305;-72
2022/04/04 02:57:21;;;;;;;4.43;4.13;;;;;;;2.20;84.85;62229.16;5042340;28;20267;-72
2022/04/04 02:59:48;;;;;;;5.47;4.00;;;;;;;2.18;85.71;62224.06;5042171;28;20198;-72
2022/04/04 03:02:15;;;;;;;5.10;4.60;;;;;;;2.11;85.25;62216.88;5039679;28;20479;-72
2022/04/04 03:04:42;;;;;;;5.70;5.15;;;;;;;2.13;85.78;62216.44;5041208;28;20271;-72
2022/04/04 03:07:10;;;;;;;4.57;4.18;;;;;;;2.12;85.46;62217.94;5031740;28;20461;-72
2022/04/04 03:09:38;;;;;;;4.15;3.83;;;;;;;1.99;86.13;62207.59;5042499;28;20209;-73
2022/04/04 03:12:07;;;;;;;4.95;4.45;;;;;;;2.06;86.26;62214.78;5041608;28;20279;-71
2022/04/04 03:14:34;;;;;;;5.00;4.60;;;;;;;1.96;85.79;62202.00;5041635;28;20206;-72
2022/04/04 03:17:00;;;;;;;5.68;5.10;;;;;;;2.02;87.37;62215.19;5042553;28;20226;-73
2022/04/04 03:19:28;;;;;;;6.68;6.00;;;;;;;2.06;88.36;62209.25;5034227;28;20199;-72
2022/04/04 03:21:56;;;;;;;7.97;6.28;;;;;;;2.13;88.65;62219.47;5040055;28;20226;-73
2022/04/04 03:24:24;;;;;;;6.38;5.22;;;;;;;2.08;87.82;62219.34;5032199;28;20422;-72
2022/04/04 03:26:51;;;;;;;6.40;4.97;;;;;;;2.10;88.95;62218.38;5041607;28;20276;-73
2022/04/04 03:29:18;;;;;;;10.38;7.70;;;;;;;2.04;88.14;62209.69;5038121;28;20225;-72
2022/04/04 03:31:45;;;;;;;9.02;6.28;;;;;;;2.01;88.58;62209.66;5033159;28;20279;-72
2022/04/04 03:34:12;;;;;;;7.95;5.45;;;;;;;2.04;88.95;62212.72;5042534;28;20473;-72
2022/04/04 03:36:39;;;;;;;5.43;4.93;;;;;;;2.01;88.10;62207.16;5032902;28;20512;-72
2022/04/04 03:39:06;;;;;;;5.63;5.07;;;;;;;1.86;87.46;62188.72;5038135;28;20210;-72
2022/04/04 03:41:34;;;;;;;6.13;5.28;;;;;;;1.81;87.88;62184.09;5041369;28;20290;-73
2022/04/04 03:44:01;;;;;;;6.95;5.70;;;;;;;1.79;89.85;62184.56;5039908;28;20240;-73
2022/04/04 03:46:28;;;;;;;5.80;5.25;;;;;;;1.81;90.71;62189.09;5040661;28;20297;-73
2022/04/04 03:48:54;;;;;;;5.95;5.45;;;;;;;1.87;91.07;62195.28;5039318;28;20202;-73
2022/04/04 03:51:21;;;;;;;65.00;30.23;;;;;;;1.87;91.06;62192.25;5045943;28;20269;-73
2022/04/04 03:53:48;;;;;;;8.32;6.90;;;;;;;1.89;90.12;62194.81;5045985;28;20268;-74
2022/04/04 03:56:15;;;;;;;7.40;6.07;;;;;;;1.87;91.27;62189.75;5043744;28;20225;-74
2022/04/04 03:58:43;;;;;;;8.55;6.75;;;;;;;1.95;91.19;62195.94;5045758;28;20246;-73
2022/04/04 04:01:10;;;;;;;9.88;6.78;;;;;;;2.01;90.99;62206.63;5045733;28;20252;-73
2022/04/04 04:03:37;;;;;;;7.63;6.72;;;;;;;2.10;91.33;62213.34;5045268;28;20230;-73
2022/04/04 04:06:14;;;;;;;8.07;6.38;;;;;;;2.16;90.45;62224.53;5037575;28;20248;-73
2022/04/04 04:08:42;;;;;;;10.75;6.35;;;;;;;2.23;90.66;62229.22;5045009;28;20289;-73
2022/04/04 04:11:09;;;;;;;8.15;6.40;;;;;;;2.27;90.02;62228.81;5032944;28;20194;-74
2022/04/04 04:13:36;;;;;;;7.38;6.40;;;;;;;2.33;89.60;62242.50;5044570;28;20507;-75
2022/04/04 04:16:05;;;;;;;22.23;14.40;;;;;;;2.32;89.77;62238.97;5031917;28;20233;-73
2022/04/04 04:18:33;;;;;;;8.07;7.20;;;;;;;2.41;90.21;62247.72;5034862;28;20233;-73
2022/04/04 04:21:00;;;;;;;7.07;6.28;;;;;;;2.49;88.37;62255.91;5044953;28;20206;-73
2022/04/04 04:23:27;;;;;;;7.88;6.22;;;;;;;2.50;87.05;62256.44;5038221;28;20465;-73
2022/04/04 04:25:54;;;;;;;9.15;6.55;;;;;;;2.53;86.38;62262.53;5045976;28;20471;-74
2022/04/04 04:28:21;;;;;;;6.97;6.28;;;;;;;2.39;83.10;62250.69;5045155;28;20214;-73
2022/04/04 04:30:48;;;;;;;8.70;6.30;;;;;;;2.32;83.56;62238.47;5045789;28;20198;-72
2022/04/04 04:33:16;;;;;;;7.82;6.70;;;;;;;2.44;85.67;62250.78;5043113;28;20233;-72
2022/04/04 04:35:43;;;;;;;9.30;7.35;;;;;;;2.50;84.90;62256.44;5047609;28;20206;-74
2022/04/04 04:38:10;;;;;;;6.70;5.65;;;;;;;2.54;82.32;62258.53;5049528;28;20530;-73
2022/04/04 04:40:37;;;;;;;7.65;6.50;;;;;;;2.46;82.11;62255.34;5048856;28;20213;-73
2022/04/04 04:43:04;;;;;;;10.00;6.18;;;;;;;2.42;81.57;62248.72;5043479;28;20260;-73
2022/04/04 04:45:31;;;;;;;6.63;5.93;;;;;;;2.65;82.15;62276.88;5045012;28;20521;-73
2022/04/04 04:47:58;;;;;;;9.30;6.82;;;;;;;2.71;82.26;62278.03;5044617;28;20425;-72
2022/04/04 04:50:27;;;;;;;9.93;6.50;;;;;;;2.69;81.16;62275.97;5042218;28;20217;-73
2022/04/04 04:52:55;;;;;;;6.97;6.28;;;;;;;2.73;80.67;62280.56;5043989;28;20264;-74
2022/04/04 04:55:24;;;;;;;9.13;6.35;;;;;;;2.88;80.12;62290.47;5044832;28;20216;-73
2022/04/04 04:57:52;;;;;;;9.82;6.43;;;;;;;2.97;80.17;62302.22;5041286;28;20535;-73
2022/04/04 05:00:23;;;;;;;10.10;6.20;;;;;;;3.10;79.06;62323.63;5041818;28;20530;-73
2022/04/04 05:03:24;;;;;;;8.65;5.97;;;;;;;3.19;78.63;62327.84;5044402;28;20257;-74
2022/04/04 05:05:38;;;;;;;9.70;6.00;;;;;;;3.24;76.80;62335.00;5044838;28;20240;-73
2022/04/04 05:08:06;;;;;;;6.55;5.90;;;;;;;3.30;77.13;62339.16;5041573;28;20600;-73
2022/04/04 05:10:33;;;;;;;7.00;6.10;;;;;;;3.24;76.87;62332.47;5044283;28;20201;-73
2022/04/04 05:13:00;;;;;;;9.00;6.57;;;;;;;3.31;77.68;62345.22;5041905;28;20233;-75
2022/04/04 05:15:27;;;;;;;8.02;6.57;;;;;;;3.29;74.97;62332.59;5043606;28;20506;-73
2022/04/04 05:17:54;;;;;;;6.85;6.15;;;;;;;3.24;76.03;62327.97;5041547;28;20232;-74
2022/04/04 05:20:21;;;;;;;6.13;5.45;;;;;;;3.27;76.07;62338.06;5044032;28;20244;-72
2022/04/04 05:22:49;;;;;;;6.20;5.55;;;;;;;3.24;77.55;62329.97;5044030;28;20401;-72
2022/04/04 05:25:16;;;;;;;5.88;5.28;;;;;;;3.18;77.39;62326.81;5042532;28;20500;-72
2022/04/04 05:27:43;;;;;;;7.05;6.25;;;;;;;2.90;77.46;62302.56;5035897;28;20267;-73
2022/04/04 05:30:11;;;;;;;7.95;6.53;;;;;;;3.12;79.83;62320.66;5044156;28;20202;-73
2022/04/04 05:32:38;;;;;;;8.32;6.80;;;;;;;3.35;78.98;62344.31;5043162;28;20438;-74
2022/04/04 05:35:07;;;;;;;12.13;6.10;;;;;;;3.52;77.00;62361.25;5043071;28;20259;-74
2022/04/04 05:37:33;;;;;;;7.57;6.03;;;;;;;3.51;76.37;62365.78;5041015;28;20222;-74
2022/04/04 05:40:02;;;;;;;7.45;6.50;;;;;;;2.97;80.52;62302.72;5042663;28;20564;-73
2022/04/04 05:42:29;;;;;;;7.60;5.93;;;;;;;2.79;78.64;62283.72;5044208;28;20237;-73
2022/04/04 05:44:56;;;;;;;6.50;5.72;;;;;;;2.41;80.90;62250.22;5041029;28;20236;-74
2022/04/04 05:47:23;;;;;;;7.05;6.25;;;;;;;2.40;85.89;62246.66;5041700;28;20233;-73
2022/04/04 05:49:50;;;;;;;5.70;4.88;;;;;;;2.29;84.15;62233.41;5043394;28;20198;-72
2022/04/04 05:52:17;;;;;;;10.40;6.35;;;;;;;2.56;84.98;62260.59;5043803;28;20300;-76
2022/04/04 05:54:54;;;;;;;6.20;5.50;;;;;;;2.32;85.29;62238.97;5042534;28;20273;-77
2022/04/04 05:57:24;;;;;;;7.20;6.55;;;;;;;2.58;86.83;62267.16;5042115;28;20221;-77
2022/04/04 05:59:52;;;;;;;4.85;4.45;;;;;;;2.50;83.89;62256.44;5042517;28;20244;-78
2022/04/04 06:02:19;;;;;;;6.70;6.03;;;;;;;2.41;86.91;62242.16;5043423;28;20210;-77
2022/04/04 06:04:46;;;;;;;6.70;5.70;;;;;;;2.19;85.47;62225.13;5044395;28;20202;-77
2022/04/04 06:07:13;;;;;;;9.00;6.55;;;;;;;2.30;88.78;62239.44;5044415;28;20267;-77
2022/04/04 06:09:40;;;;;;;6.47;5.88;;;;;;;2.71;87.31;62273.00;5042032;28;20221;-76
2022/04/04 06:12:07;;;;;;;6.72;6.03;;;;;;;2.58;85.21;62267.69;5043893;28;20229;-77
2022/04/04 06:14:36;;;;;;;7.13;6.38;;;;;;;2.95;87.24;62305.19;5043973;28;20277;-77
2022/04/04 06:17:03;;;;;;;11.43;6.32;;;;;;;3.28;83.58;62337.09;5042316;28;20457;-77
2022/04/04 06:19:30;;;;;;;7.95;6.63;;;;;;;2.91;84.38;62299.09;5044548;28;20208;-77
2022/04/04 06:21:57;;;;;;;7.03;6.25;;;;;;;3.16;83.88;62324.25;5044181;28;20396;-73
2022/04/04 06:24:24;;;;;;;9.73;6.80;;;;;;;2.99;85.97;62307.28;5043682;28;20202;-73
2022/04/04 06:26:51;;;;;;;7.57;6.82;;;;;;;2.82;85.59;62289.81;5029936;28;20222;-74
2022/04/04 06:29:18;;;;;;;7.03;6.32;;;;;;;3.05;84.77;62315.47;5034861;28;20274;-74
2022/04/04 06:31:46;;;;;;;12.00;7.43;;;;;;;3.28;84.00;62337.09;5043304;28;20225;-73
2022/04/04 06:34:13;;;;;;;9.13;6.40;;;;;;;3.28;82.93;62337.09;5041687;28;20221;-74
2022/04/04 06:36:40;;;;;;;6.70;5.20;;;;;;;3.57;82.44;62360.88;5043239;28;20229;-73
2022/04/04 06:39:07;;;;;;;10.27;5.97;;;;;;;3.39;82.01;62345.91;5043304;28;20202;-73
2022/04/04 06:41:36;;;;;;;8.68;6.35;;;;;;;3.63;79.64;62372.56;5043376;28;20236;-73
2022/04/04 06:44:03;;;;;;;6.90;6.25;;;;;;;3.44;79.80;62353.56;5041637;28;20210;-74
2022/04/04 06:46:30;;;;;;;6.50;5.85;;;;;;;3.10;81.42;62320.59;5043213;28;20248;-74
2022/04/04 06:48:58;;;;;;;9.70;6.85;;;;;;;3.25;82.08;62333.50;5043477;28;20194;-74
2022/04/04 06:51:25;;;;;;;7.82;6.32;;;;;;;3.68;79.94;62377.72;5041917;28;20260;-75
2022/04/04 06:53:53;;;;;;;6.00;5.40;;;;;;;3.56;78.50;62365.38;5043451;28;20229;-74
2022/04/04 06:56:20;;;;;;;11.40;6.32;;;;;;;3.96;79.87;62411.56;5044261;28;20205;-72
2022/04/04 06:58:47;;;;;;;11.15;5.93;;;;;;;3.29;77.99;62340.66;5042122;28;20218;-74
2022/04/04 07:01:14;;;;;;;8.80;5.63;;;;;;;3.28;80.39;62337.09;5038504;28;20496;-73
2022/04/04 07:03:41;;;;;;;9.60;5.38;;;;;;;3.19;80.48;62329.88;5033623;28;20272;-74
2022/04/04 07:06:09;;;;;;;7.68;6.07;;;;;;;3.65;82.59;62374.13;5041349;28;20244;-73
2022/04/04 07:08:36;;;;;;;7.80;6.22;;;;;;;3.58;79.93;62369.44;5038599;28;20550;-74
2022/04/04 07:11:03;;;;;;;9.45;6.63;;;;;;;3.30;83.37;62339.16;5042904;28;20248;-74
2022/04/04 07:13:31;;;;;;;6.60;6.00;;;;;;;3.65;80.73;62376.63;5042314;28;20237;-75
2022/04/04 07:15:58;;;;;;;7.35;6.00;;;;;;;3.73;80.41;62379.84;5041877;28;20198;-74
2022/04/04 07:18:25;;;;;;;7.82;6.90;;;;;;;3.71;79.23;62380.31;5023049;28;20226;-75
2022/04/04 07:20:52;;;;;;;8.05;7.25;;;;;;;4.07;79.79;62415.31;5039741;28;20198;-75
2022/04/04 07:23:21;;;;;;;11.02;6.63;;;;;;;4.34;77.58;62443.09;5043322;28;20217;-74
2022/04/04 07:25:48;;;;;;;7.25;6.40;;;;;;;4.37;79.22;62445.66;5047267;28;20244;-74
2022/04/04 07:28:16;;;;;;;6.30;5.68;;;;;;;4.84;77.01;62494.03;5037799;28;20652;-73
2022/04/04 07:30:43;;;;;;;6.50;5.90;;;;;;;4.99;71.58;62511.50;5037590;28;20252;-75
2022/04/04 07:33:15;;;;;;;6.25;5.72;;;;;;;4.68;73.83;62477.56;5048012;28;20237;-74
2022/04/04 07:35:42;;;;;;;6.78;6.13;;;;;;;5.26;73.36;62542.34;5046479;28;20239;-74
2022/04/04 07:38:10;;;;;;;8.50;6.20;;;;;;;5.50;67.77;62567.06;5047167;28;20213;-73
2022/04/04 07:40:40;;;;;;;6.65;5.72;;;;;;;4.82;71.12;62493.97;5048342;28;20205;-73
2022/04/04 07:43:08;;;;;;;7.00;6.30;;;;;;;4.98;71.74;62515.50;5046835;28;20268;-75
2022/04/04 07:45:35;;;;;;;7.38;6.47;;;;;;;5.42;72.83;62558.28;5045657;28;20201;-74
2022/04/04 07:48:03;;;;;;;9.63;6.85;;;;;;;5.76;68.87;62591.31;5046561;28;20452;-74
2022/04/04 07:50:31;;;;;;;8.15;7.07;;;;;;;5.66;68.86;62583.53;5046925;28;20252;-73
2022/04/04 07:52:58;;;;;;;7.90;6.43;;;;;;;5.89;68.41;62599.19;5044169;28;20233;-74
2022/04/04 07:55:25;;;;;;;8.98;6.75;;;;;;;5.69;68.14;62583.59;5043573;28;20202;-74
2022/04/04 07:57:53;;;;;;;8.32;6.53;;;;;;;5.89;67.41;62604.22;5038909;28;20451;-75
2022/04/04 08:00:21;;;;;;;8.18;6.72;;;;;;;5.55;66.60;62571.69;5039157;28;20198;-74
2022/04/04 08:02:48;;;;;;;6.35;5.78;;;;;;;5.77;67.99;62594.38;5041257;28;20218;-73
2022/04/04 08:05:16;;;;;;;7.45;6.25;;;;;;;5.76;68.10;62591.31;5046598;28;20244;-75
2022/04/04 08:07:44;;;;;;;9.20;6.35;;;;;;;6.04;66.32;62619.69;5046901;28;20218;-75
2022/04/04 08:10:11;;;;;;;7.15;6.45;;;;;;;5.68;65.63;62583.09;5045931;28;20273;-74
2022/04/04 08:12:38;;;;;;;7.35;6.13;;;;;;;5.59;69.57;62573.81;5030750;28;20233;-75
2022/04/04 08:15:08;;;;;;;10.88;7.05;;;;;;;6.24;69.30;62640.31;5030850;28;20278;-74
2022/04/04 08:17:35;;;;;;;7.47;6.38;;;;;;;6.67;66.39;62686.66;5047104;28;20224;-74
2022/04/04 08:20:03;;;;;;;9.93;6.50;;;;;;;6.01;64.59;62619.13;5047334;28;20227;-75
2022/04/04 08:22:30;;;;;;;9.85;6.38;;;;;;;6.37;64.95;62653.19;5047450;28;20407;-74
2022/04/04 08:24:57;;;;;;;6.95;6.25;;;;;;;6.60;65.76;62682.47;5046500;28;20208;-74
2022/04/04 08:27:25;;;;;;;9.15;6.80;;;;;;;7.12;63.81;62730.56;5048417;28;20240;-74
2022/04/04 08:29:52;;;;;;;7.80;6.85;;;;;;;7.34;60.67;62747.66;5046577;28;20438;-74
2022/04/04 08:32:20;;;;;;;7.82;6.35;;;;;;;7.76;57.56;62801.66;5046761;28;20214;-75
2022/04/04 08:34:47;;;;;;;7.93;7.13;;;;;;;7.78;60.60;62798.66;5046078;28;20268;-74
2022/04/04 08:37:15;;;;;;;8.45;7.13;;;;;;;7.93;56.38;62816.69;5047701;28;20218;-74
2022/04/04 08:39:44;;;;;;;13.10;8.43;;;;;;;7.57;58.37;62776.47;5047214;28;20190;-75
2022/04/04 08:42:12;;;;;;;9.05;7.40;;;;;;;7.32;60.47;62750.66;5045845;28;20297;-76
2022/04/04 08:44:39;;;;;;;8.65;7.40;;;;;;;6.73;63.25;62687.78;5038426;28;20209;-74
2022/04/04 08:47:08;;;;;;;9.50;8.00;;;;;;;6.98;63.30;62721.69;5042564;28;20222;-74
2022/04/04 08:49:36;;;;;;;11.90;7.55;;;;;;;6.73;60.53;62693.34;5046229;28;20244;-75
2022/04/04 08:52:03;;;;;;;9.38;8.27;;;;;;;6.56;63.28;62675.31;5045164;28;20230;-74
2022/04/04 08:54:30;;;;;;;9.45;8.25;;;;;;;6.36;63.05;62649.63;5043797;28;20233;-75
2022/04/04 08:56:57;;;;;;;9.35;7.70;;;;;;;6.87;63.97;62702.22;5043743;28;20561;-75
2022/04/04 08:59:24;;;;;;;8.70;7.82;;;;;;;7.27;60.50;62745.50;5044677;28;20208;-75
2022/04/04 09:01:51;;;;;;;8.80;7.55;;;;;;;7.81;60.17;62804.28;5043563;28;20272;-76
2022/04/04 09:04:18;;;;;;;12.02;7.63;;;;;;;8.35;56.39;62859.03;5044681;28;20197;-75
2022/04/04 09:06:51;;;;;;;11.35;7.72;;;;;;;8.15;53.82;62836.88;5044981;28;20206;-76
2022/04/04 09:09:24;;;;;;;8.98;7.63;;;;;;;8.16;56.42;62835.34;5044602;28;20221;-74
2022/04/04 09:11:53;;;;;;;11.98;7.80;;;;;;;8.86;56.34;62912.25;5043088;28;20272;-74
2022/04/04 09:14:23;;;;;;;8.57;7.38;;;;;;;8.88;54.55;62911.78;5043555;28;20229;-73
2022/04/04 09:16:57;;;;;;;8.35;7.63;;;;;;;8.67;56.57;62890.09;5043108;28;20237;-74
2022/04/04 09:19:30;;;;;;;8.55;7.72;;;;;;;8.40;55.50;62857.13;5043276;28;20191;-74
2022/04/04 09:22:04;;;;;;;12.85;7.65;;;;;;;8.23;54.92;62844.63;5041407;28;20222;-76
2022/04/04 09:24:49;;;;;;;10.60;6.65;;;;;;;8.19;55.13;62843.03;5042984;28;20225;-74
2022/04/04 09:27:24;;;;;;;9.05;7.53;;;;;;;8.33;57.51;62852.44;5043697;28;20225;-74
2022/04/04 09:29:54;;;;;;;11.25;8.07;;;;;;;8.49;53.77;62868.44;5043044;28;20232;-75
2022/04/04 09:32:21;;;;;;;8.63;7.30;;;;;;;8.22;53.96;62846.13;5044595;28;20393;-75
2022/04/04 09:35:01;;;;;;;10.90;7.70;;;;;;;8.59;53.95;62878.75;5044145;28;20263;-75
2022/04/04 09:37:32;;;;;;;10.00;8.00;;;;;;;8.07;54.95;62830.63;5044246;28;20511;-74
2022/04/04 09:40:07;;;;;;;11.25;7.28;;;;;;;7.92;55.27;62810.56;5043258;28;20209;-75
2022/04/04 09:42:34;;;;;;;11.43;8.45;;;;;;;7.79;56.17;62799.19;5044568;28;20225;-74
2022/04/04 09:45:03;;;;;;;10.93;8.07;;;;;;;8.07;55.58;62833.16;5044622;28;20212;-75
2022/04/04 09:47:53;;;;;;;12.88;8.18;;;;;;;8.70;54.54;62890.13;5041440;28;20236;-75
2022/04/04 09:50:31;;;;;;;9.10;7.75;;;;;;;9.05;53.83;62931.91;5043796;28;20236;-75
2022/04/04 09:53:00;;;;;;;7.85;7.05;;;;;;;9.64;51.71;62997.47;5043520;28;20225;-75
2022/04/04 09:55:28;;;;;;;6.90;6.20;;;;;;;8.72;51.82;62892.19;5041120;28;20260;-76
2022/04/04 09:57:58;;;;;;;9.05;7.32;;;;;;;8.24;54.18;62847.69;5043595;28;20244;-75
2022/04/04 10:00:25;;;;;;;7.82;6.90;;;;;;;8.33;55.65;62860.03;5042915;28;20309;-75
2022/04/04 10:02:52;;;;;;;7.53;6.43;;;;;;;8.63;52.71;62885.44;5042403;28;20260;-76
2022/04/04 10:05:21;;;;;;;10.00;7.53;;;;;;;8.13;54.41;62831.75;5043494;28;20222;-76
2022/04/04 10:07:49;;;;;;;8.27;6.93;;;;;;;7.91;56.09;62811.56;5043674;28;20224;-75
2022/04/04 10:10:17;;;;;;;8.98;7.65;;;;;;;8.83;54.51;62903.56;5042441;28;20209;-74
2022/04/04 10:12:45;;;;;;;10.25;7.72;;;;;;;9.15;52.65;62944.25;5043226;28;20226;-75
2022/04/04 10:15:12;;;;;;;8.02;7.20;;;;;;;9.55;52.60;62980.00;5043457;28;20234;-75
2022/04/04 10:17:40;;;;;;;14.65;7.78;;;;;;;9.62;49.63;62987.25;5042427;28;20241;-76
2022/04/04 10:20:08;;;;;;;9.95;8.00;;;;;;;9.57;50.37;62985.13;5043209;28;20490;-75
2022/04/04 10:22:35;;;;;;;9.18;6.35;;;;;;;9.72;50.07;62995.56;5041419;28;20218;-75
2022/04/04 10:25:03;;;;;;;8.32;7.13;;;;;;;8.81;50.53;62899.47;5044229;28;20387;-75
2022/04/04 10:27:31;;;;;;;8.63;7.35;;;;;;;9.36;51.86;62960.88;5043997;28;20248;-74
2022/04/04 10:30:04;;;;;;;10.32;7.43;;;;;;;9.17;50.41;62944.31;5044067;28;20214;-75
2022/04/04 10:32:31;;;;;;;8.85;6.93;;;;;;;9.69;51.06;62997.03;5043603;28;20440;-74
2022/04/04 10:34:58;;;;;;;7.53;6.82;;;;;;;10.29;48.48;63062.19;5043590;28;20233;-76
2022/04/04 10:40:33;;;;;;;7.75;6.88;;;;;;;10.74;48.28;63102.63;5049443;28;20236;-74
2022/04/04 10:43:12;;;;;;;11.90;6.47;;;;;;;11.12;45.86;63147.59;5043314;28;20441;-75
2022/04/04 10:45:57;;;;;;;6.78;6.05;;;;;;;11.19;45.39;63154.31;5029141;28;20228;-75
2022/04/04 10:48:28;;;;;;;8.20;6.63;;;;;;;11.75;45.08;63206.72;5034779;28;20218;-74
2022/04/04 10:50:55;;;;;;;11.10;6.20;;;;;;;12.22;44.46;63255.41;5022441;28;20423;-75
2022/04/04 10:53:41;;;;;;;13.23;6.93;;;;;;;12.54;44.18;63289.13;5023207;28;20222;-75
2022/04/04 10:56:12;;;;;;;8.25;6.60;;;;;;;12.52;43.52;63289.59;5037682;28;20240;-74
2022/04/04 10:58:40;;;;;;;7.43;5.82;;;;;;;12.03;46.10;63238.28;5043788;28;20218;-74
2022/04/04 11:01:14;;;;;;;8.45;6.57;;;;;;;11.61;46.52;63192.72;5046108;28;20206;-75
2022/04/04 11:03:42;;;;;;;8.75;6.65;;;;;;;12.07;43.60;63240.41;5045374;28;20396;-74
2022/04/04 11:09:00;;;;;;;8.20;7.35;;;;;;;12.20;43.55;63256.41;5046655;28;20213;-75
2022/04/04 11:11:48;;;;;;;12.48;7.80;;;;;;;11.66;44.81;63197.41;5046330;28;20213;-73
2022/04/04 11:14:17;;;;;;;7.53;6.72;;;;;;;11.81;46.07;63212.94;5044819;28;20364;-74
2022/04/04 11:17:19;;;;;;;7.43;6.35;;;;;;;11.91;46.16;63225.84;5046109;28;20194;-75
2022/04/04 11:19:51;;;;;;;6.95;6.18;;;;;;;11.41;44.61;63174.53;5046129;28;20190;-74
2022/04/04 11:22:26;;;;;;;7.15;5.88;;;;;;;10.17;47.19;63046.69;5043367;28;20252;-75
2022/04/04 11:24:56;;;;;;;10.93;6.47;;;;;;;10.18;46.93;63045.69;5046657;28;20401;-75
2022/04/04 11:27:26;;;;;;;6.55;5.95;;;;;;;10.01;47.79;63030.13;5046290;28;20285;-74
2022/04/04 11:29:55;;;;;;;9.55;6.50;;;;;;;10.27;47.83;63059.59;5046295;28;20186;-73
2022/04/04 11:32:28;;;;;;;7.30;6.20;;;;;;;10.99;47.73;63129.00;5043841;28;20264;-73
2022/04/04 11:34:57;;;;;;;5.55;5.07;;;;;;;11.14;45.85;63147.09;5046069;28;20252;-74
2022/04/04 11:37:26;;;;;;;9.05;5.78;;;;;;;11.15;44.64;63147.59;5044392;28;20275;-75
2022/04/04 11:40:03;;;;;;;5.72;5.18;;;;;;;11.00;45.23;63132.59;5041072;28;20201;-74
2022/04/04 11:42:30;;;;;;;6.32;5.32;;;;;;;10.74;45.97;63105.16;5046472;28;20229;-74
2022/04/04 11:44:59;;;;;;;6.10;4.88;;;;;;;11.30;44.83;63161.13;5044834;28;20264;-74
2022/04/04 11:47:26;;;;;;;7.63;6.80;;;;;;;11.61;45.43;63193.22;5044263;28;20248;-74
2022/04/04 11:49:58;;;;;;;8.82;6.72;;;;;;;11.59;47.13;63193.19;5038630;28;20503;-74
2022/04/04 11:52:26;;;;;;;7.80;6.22;;;;;;;12.10;44.97;63246.06;5046341;28;20280;-75
2022/04/04 11:54:53;;;;;;;6.57;5.80;;;;;;;12.46;44.69;63280.81;5046137;28;20546;-75